Vermilion Bay, Canada
Current Conditions -  °F | °C
As of 12:00 AM on Thursday 27 Nov 2014 (Local Time) from CYHD Reporting Station
Clear Clear  
Wind Chill: -13°   Ceiling: Unl
Heat Index: -13°   Visibility: 9mi
Dew Point: -17°   Wind: 2mph
Humidity: 84%   Direction: 310°NW
Pressure: 30.4"   Gusts: NA
Location:  49.85°N, 93.38°W
Report Text: CYHD 270600Z AUTO 31002KT 9SM CLR M25/M27 A3040 RMK SLP347
Loading
Personal Weather Stations






























Interactive Weather Map New forecast layout! Learn more

10-Day Weather Forecast

Advertisements
Track Severe Weather on mobile